Pope AFB, North Carolina
Current Conditions -  °F | °C
As of 5:58 PM on Thursday 27 Nov 2014 (Local Time) from KPOB Reporting Station
Clear Clear  
Wind Chill: 44°   Ceiling: Unl
Heat Index: 44°   Visibility: 10mi
Dew Point: 35°   Wind: 2mph
Humidity: 71%   Direction: 310°NW
Pressure: 30.16"   Gusts: NA
Location:  35.17°N, 79.01°W
Report Text: KPOB 272258Z AUTO 31002KT 10SM CLR 07/02 A3016 RMK AO2 SLP217 T00650016
Loading
Personal Weather Stations






























Interactive Weather Map New forecast layout! Learn more

10-Day Weather Forecast

Advertisements
Track Severe Weather on mobile